createdAt,value
2022-12-26T07:57:48.764Z,5.90
2022-12-26T08:00:26.645Z,7.87
2022-12-26T08:03:07.787Z,6.80
2022-12-26T08:05:49.702Z,7.50
2022-12-26T08:08:27.230Z,7.50
2022-12-26T08:11:05.789Z,6.83
2022-12-26T08:13:45.301Z,8.67
2022-12-26T08:16:23.345Z,9.00
2022-12-26T08:19:00.496Z,7.60
2022-12-26T08:21:38.233Z,8.87
2022-12-26T08:24:16.359Z,7.07
2022-12-26T08:26:54.197Z,7.33
2022-12-26T08:29:33.875Z,7.27
2022-12-26T08:32:11.131Z,7.40
2022-12-26T08:34:48.615Z,7.57
2022-12-26T08:37:26.037Z,7.30
2022-12-26T08:40:02.940Z,7.63
2022-12-26T08:42:50.144Z,6.97
2022-12-26T08:45:39.755Z,7.90
2022-12-26T08:48:17.206Z,7.83
2022-12-26T08:51:02.048Z,8.20
2022-12-26T08:53:40.095Z,9.70
2022-12-26T08:56:20.068Z,9.67
2022-12-26T08:58:57.992Z,11.30
2022-12-26T09:01:38.256Z,9.10
2022-12-26T09:04:15.650Z,9.03
2022-12-26T09:06:53.209Z,8.93
2022-12-26T09:09:30.611Z,8.83
2022-12-26T09:12:07.813Z,9.90
2022-12-26T09:14:45.071Z,9.17
2022-12-26T09:17:26.726Z,8.63
2022-12-26T09:20:04.411Z,8.63
2022-12-26T09:22:53.838Z,8.50
2022-12-26T09:25:32.242Z,9.27
2022-12-26T09:28:09.327Z,9.40
2022-12-26T09:30:46.888Z,9.90
2022-12-26T09:33:26.462Z,8.93
2022-12-26T09:36:08.281Z,9.97
2022-12-26T09:38:49.205Z,9.60
2022-12-26T09:42:01.617Z,12.07
2022-12-26T09:44:54.400Z,10.93
2022-12-26T09:47:37.242Z,10.82
2022-12-26T09:50:23.850Z,10.47
2022-12-26T09:53:06.440Z,9.80
2022-12-26T09:55:52.211Z,10.93
2022-12-26T09:58:31.887Z,10.40
2022-12-26T10:01:14.006Z,9.80
2022-12-26T10:03:54.849Z,10.03
2022-12-26T10:06:42.141Z,10.07
2022-12-26T10:09:48.757Z,9.93
2022-12-26T10:12:42.491Z,10.20
2022-12-26T10:15:44.745Z,10.43
2022-12-26T10:18:36.162Z,10.50
2022-12-26T10:21:39.524Z,10.83
2022-12-26T10:24:21.983Z,10.90
2022-12-26T10:27:06.717Z,10.53
2022-12-26T10:29:47.208Z,9.90
2022-12-26T10:32:37.134Z,11.63
2022-12-26T10:35:25.770Z,10.70
2022-12-26T10:38:15.839Z,10.70
2022-12-26T10:40:57.209Z,11.00
2022-12-26T10:43:39.103Z,10.57
2022-12-26T10:46:55.107Z,10.87
2022-12-26T10:49:34.552Z,12.20
2022-12-26T10:52:14.287Z,11.47
2022-12-26T10:55:28.971Z,11.93
2022-12-26T10:58:01.729Z,12.00
2022-12-26T11:00:40.098Z,11.33
2022-12-26T11:03:19.538Z,11.97
2022-12-26T11:06:08.517Z,12.03
2022-12-26T11:08:53.233Z,16.70
2022-12-26T11:11:48.556Z,16.63
2022-12-26T11:14:35.614Z,14.43
2022-12-26T11:17:16.797Z,14.40
2022-12-26T11:20:12.219Z,15.87
2022-12-26T11:22:50.679Z,14.83
2022-12-26T11:25:30.722Z,17.90
2022-12-26T11:28:34.634Z,16.10
2022-12-26T11:31:27.127Z,17.00
2022-12-26T11:34:10.359Z,19.30
2022-12-26T11:36:54.820Z,20.30
2022-12-26T11:42:15.381Z,23.83
2022-12-26T11:44:59.223Z,27.07
2022-12-26T11:47:42.481Z,27.45
2022-12-26T11:50:23.664Z,26.60
2022-12-26T11:53:20.565Z,26.63
2022-12-26T11:56:14.339Z,21.27
2022-12-26T11:58:52.087Z,23.60
2022-12-26T12:01:33.324Z,18.07
2022-12-26T12:04:11.826Z,16.07
2022-12-26T12:07:04.820Z,18.83
2022-12-26T12:09:53.497Z,11.70
2022-12-26T12:12:38.122Z,12.03
2022-12-26T12:15:23.333Z,8.23
2022-12-26T12:18:10.206Z,8.43
2022-12-26T12:21:04.105Z,8.43
2022-12-26T12:24:03.633Z,6.93
2022-12-26T12:26:54.430Z,6.13
2022-12-26T12:29:51.340Z,4.90
2022-12-26T12:32:42.676Z,5.53
2022-12-26T12:35:53.129Z,5.93
2022-12-26T12:38:36.457Z,5.30
2022-12-26T12:41:48.072Z,5.72
2022-12-26T12:44:33.500Z,5.23
2022-12-26T12:47:19.530Z,5.53
2022-12-26T12:50:09.569Z,4.47
2022-12-26T12:52:59.654Z,3.77
2022-12-26T12:56:02.600Z,3.80
2022-12-26T12:58:49.451Z,2.83
2022-12-26T13:01:33.405Z,2.77
2022-12-26T13:04:18.283Z,2.30
2022-12-26T13:06:59.982Z,1.90
2022-12-26T13:09:48.500Z,2.63
2022-12-26T13:12:29.720Z,2.07
2022-12-26T13:15:13.049Z,2.30
2022-12-26T13:17:57.898Z,2.58
2022-12-26T13:20:44.855Z,2.80
2022-12-26T13:23:45.552Z,3.07
2022-12-26T13:26:31.115Z,3.13
2022-12-26T13:29:16.228Z,6.60
2022-12-26T13:31:54.101Z,13.80
2022-12-26T13:34:32.007Z,5.53
2022-12-26T13:37:09.485Z,3.60
2022-12-26T13:39:47.091Z,3.37
2022-12-26T13:42:49.223Z,3.60
2022-12-26T13:45:58.674Z,3.70
2022-12-26T13:49:02.528Z,4.00
2022-12-26T13:51:58.546Z,3.17
2022-12-26T13:54:37.179Z,3.73
2022-12-26T13:57:45.266Z,3.57
2022-12-26T14:00:28.435Z,3.93
2022-12-26T14:03:41.376Z,3.45
2022-12-26T14:06:59.367Z,3.95
2022-12-26T14:10:01.806Z,3.53
2022-12-26T14:13:07.248Z,4.03
2022-12-26T14:15:57.297Z,3.80
2022-12-26T14:18:48.136Z,3.37
2022-12-26T14:21:43.208Z,3.43
2022-12-26T14:24:35.047Z,3.40
2022-12-26T14:27:35.190Z,3.03
2022-12-26T14:30:32.382Z,3.30
2022-12-26T14:33:31.412Z,2.97
2022-12-26T14:36:31.772Z,2.70
2022-12-26T14:39:25.627Z,2.70
2022-12-26T14:42:36.900Z,2.67
2022-12-26T14:45:58.205Z,2.60
2022-12-26T14:49:02.152Z,3.00
2022-12-26T14:51:44.312Z,3.60
2022-12-26T14:54:51.319Z,2.93
2022-12-26T14:57:46.858Z,2.90
2022-12-26T15:00:40.120Z,5.10
2022-12-26T15:03:55.334Z,4.07
2022-12-26T15:07:18.638Z,4.37
2022-12-26T15:10:57.389Z,3.77
2022-12-26T15:14:24.036Z,3.53
2022-12-26T15:17:15.267Z,3.07
2022-12-26T15:20:38.186Z,3.10
2022-12-26T15:24:03.231Z,3.03
2022-12-26T15:27:16.083Z,2.57
2022-12-26T15:30:19.235Z,2.67
2022-12-26T15:33:06.244Z,2.95
2022-12-26T15:35:52.058Z,3.87
2022-12-26T15:38:42.337Z,2.90
2022-12-26T15:41:37.882Z,3.30
2022-12-26T15:44:31.567Z,4.03
2022-12-26T15:47:22.196Z,5.13
2022-12-26T15:50:14.810Z,5.70
2022-12-26T15:53:04.004Z,7.53
2022-12-26T15:56:05.795Z,7.07
2022-12-26T15:59:09.305Z,6.27
2022-12-26T16:01:53.647Z,4.93
2022-12-26T16:07:26.806Z,5.27
2022-12-26T16:10:04.942Z,4.53
2022-12-26T16:12:44.613Z,4.57
2022-12-26T16:15:26.235Z,3.90
2022-12-26T16:18:18.728Z,4.00
2022-12-26T16:21:11.192Z,4.33
2022-12-26T16:23:51.125Z,4.93
2022-12-26T16:26:32.269Z,4.97
2022-12-26T16:29:10.316Z,3.93
2022-12-26T16:31:50.415Z,4.60
2022-12-26T16:34:28.640Z,4.47
2022-12-26T16:37:05.892Z,4.20
2022-12-26T16:39:43.381Z,4.30
2022-12-26T16:42:36.063Z,4.47
2022-12-26T16:45:21.732Z,4.72
2022-12-26T16:48:02.035Z,4.90
2022-12-26T16:50:51.353Z,4.17
2022-12-26T16:53:45.820Z,4.30
2022-12-26T16:56:30.662Z,4.53
2022-12-26T16:59:17.690Z,5.40
2022-12-26T17:01:58.555Z,4.63
2022-12-26T17:04:38.647Z,3.90
2022-12-26T17:07:21.472Z,4.37
2022-12-26T17:10:02.036Z,4.30
2022-12-26T17:12:42.066Z,4.77
2022-12-26T17:15:26.271Z,4.57
2022-12-26T17:18:24.110Z,3.77
2022-12-26T17:21:22.761Z,3.93
2022-12-26T17:24:29.468Z,4.13
2022-12-26T17:27:20.534Z,4.00
2022-12-26T17:30:01.058Z,3.77
2022-12-26T17:32:43.410Z,4.07
2022-12-26T17:35:26.154Z,3.20
2022-12-26T17:38:14.130Z,3.00
2022-12-26T17:40:55.782Z,3.07
2022-12-26T17:43:37.090Z,3.60
2022-12-26T17:46:20.142Z,3.47
2022-12-26T17:48:57.453Z,4.10
2022-12-26T17:51:35.454Z,3.73
2022-12-26T17:54:17.590Z,3.33
2022-12-26T17:56:55.119Z,4.50
2022-12-26T17:59:35.972Z,4.03
2022-12-26T18:02:15.489Z,4.60
2022-12-26T18:04:55.154Z,3.57
2022-12-26T18:07:33.942Z,3.63
2022-12-26T18:10:22.011Z,3.80
2022-12-26T18:13:01.908Z,4.40
2022-12-26T18:15:40.820Z,3.87
2022-12-26T18:18:38.965Z,4.80
2022-12-26T18:21:19.879Z,5.30
2022-12-26T18:24:00.088Z,6.30
2022-12-26T18:26:43.211Z,10.47
2022-12-26T18:29:24.047Z,7.40
2022-12-26T18:32:02.735Z,6.47
2022-12-26T18:34:44.095Z,5.37
2022-12-26T18:37:23.992Z,7.60
2022-12-26T18:40:03.248Z,8.23
2022-12-26T18:42:50.303Z,7.83
2022-12-26T18:45:36.454Z,9.23
2022-12-26T18:48:20.569Z,7.90
2022-12-26T18:50:58.084Z,6.10
2022-12-26T18:53:35.894Z,7.17
2022-12-26T18:56:19.202Z,6.30
2022-12-26T18:59:03.042Z,5.50
2022-12-26T19:01:43.232Z,5.20
2022-12-26T19:04:22.072Z,5.50
2022-12-26T19:06:59.818Z,5.30
2022-12-26T19:09:37.605Z,5.40
2022-12-26T19:12:15.436Z,5.33
2022-12-26T19:14:55.659Z,5.77
2022-12-26T19:17:33.508Z,5.63
2022-12-26T19:20:20.213Z,4.53
2022-12-26T19:22:58.715Z,5.23
2022-12-26T19:25:37.759Z,4.93
2022-12-26T19:28:16.239Z,5.37
2022-12-26T19:30:56.448Z,4.67
2022-12-26T19:33:34.412Z,5.10
2022-12-26T19:36:13.671Z,5.23
2022-12-26T19:38:51.727Z,4.93
2022-12-26T19:41:30.662Z,4.90
2022-12-26T19:44:09.870Z,5.10
2022-12-26T19:46:49.676Z,4.80
2022-12-26T19:49:49.711Z,5.07
2022-12-26T19:52:30.908Z,5.38
2022-12-26T19:55:09.710Z,4.57
2022-12-26T19:57:47.323Z,4.70
2022-12-26T20:00:25.264Z,4.80
2022-12-26T20:03:05.912Z,4.73
2022-12-26T20:05:46.019Z,4.63
2022-12-26T20:08:24.662Z,4.80
2022-12-26T20:11:12.924Z,5.50
2022-12-26T20:13:51.620Z,5.43
2022-12-26T20:17:04.464Z,5.13
2022-12-26T20:19:32.611Z,4.37
2022-12-26T20:22:11.880Z,5.27
2022-12-26T20:24:56.909Z,5.60
2022-12-26T20:27:46.434Z,5.77
2022-12-26T20:30:27.007Z,6.00
2022-12-26T20:33:06.939Z,5.67
2022-12-26T20:35:51.071Z,5.63
2022-12-26T20:38:35.917Z,5.20
2022-12-26T20:41:19.380Z,6.50
2022-12-26T20:44:05.913Z,6.43
2022-12-26T20:46:47.316Z,6.40
2022-12-26T20:49:30.457Z,6.33
2022-12-26T20:52:10.069Z,5.83
2022-12-26T20:54:47.555Z,6.20
2022-12-26T20:57:25.304Z,5.93
2022-12-26T21:00:09.267Z,6.07
2022-12-26T21:02:56.506Z,5.83
2022-12-26T21:05:42.762Z,6.40
2022-12-26T21:08:30.495Z,6.45
2022-12-26T21:11:26.053Z,5.73
2022-12-26T21:14:18.751Z,5.43
2022-12-26T21:17:08.285Z,5.23
2022-12-26T21:19:53.253Z,5.80
2022-12-26T21:22:35.957Z,4.57
2022-12-26T21:25:18.250Z,4.23
2022-12-26T21:28:01.624Z,3.08
2022-12-26T21:30:52.580Z,2.30
2022-12-26T21:33:44.276Z,2.37
2022-12-26T21:36:29.343Z,2.00
2022-12-26T21:39:15.186Z,1.80
2022-12-26T21:41:58.793Z,1.73
2022-12-26T21:44:39.023Z,1.70
2022-12-26T21:47:19.945Z,1.40
2022-12-26T21:50:00.089Z,1.30
2022-12-26T21:52:38.342Z,1.00
2022-12-26T21:55:33.111Z,0.90
2022-12-26T21:58:20.567Z,1.17
2022-12-26T22:01:03.188Z,1.40
2022-12-26T22:04:02.393Z,1.33
2022-12-26T22:06:49.945Z,1.13
2022-12-26T22:09:28.833Z,1.20
2022-12-26T22:12:23.080Z,1.30
2022-12-26T22:15:04.339Z,1.20
2022-12-26T22:17:41.692Z,1.20
